createdAt,value
2022-08-14T00:02:27.929Z,100380.28
2022-08-14T00:04:59.726Z,100380.28
2022-08-14T00:07:28.027Z,100377.06
2022-08-14T00:10:50.194Z,100381.16
2022-08-14T00:12:56.821Z,100373.75
2022-08-14T00:15:37.505Z,100372.66
2022-08-14T00:18:30.766Z,100368.56
2022-08-14T00:21:10.962Z,100360.41
2022-08-14T00:23:40.509Z,100368.72
2022-08-14T00:26:21.817Z,100358.72
2022-08-14T00:28:54.516Z,100351.66
2022-08-14T00:31:34.878Z,100359.47
2022-08-14T00:34:35.355Z,100351.03
2022-08-14T00:37:25.459Z,100349.88
2022-08-14T00:39:53.496Z,100354.31
2022-08-14T00:42:55.075Z,100353.56
2022-08-14T00:45:13.892Z,100344.94
2022-08-14T00:47:45.068Z,100341.41
2022-08-14T00:50:18.582Z,100346.31
2022-08-14T00:52:52.647Z,100346.88
2022-08-14T00:55:21.315Z,100344.16
2022-08-14T00:58:11.599Z,100336.63
2022-08-14T01:00:51.201Z,100341.81
2022-08-14T01:03:26.159Z,100339.38
2022-08-14T01:05:54.277Z,100333.19
2022-08-14T01:08:51.834Z,100332.69
2022-08-14T01:11:19.398Z,100320.50
2022-08-14T01:13:56.207Z,100333.69
2022-08-14T01:16:31.587Z,100329.66
2022-08-14T01:19:19.629Z,100328.84
2022-08-14T01:21:53.080Z,100326.06
2022-08-14T01:24:30.578Z,100326.69
2022-08-14T01:27:00.742Z,100325.63
2022-08-14T01:29:59.368Z,100322.94
2022-08-14T01:32:26.918Z,100313.66
2022-08-14T01:35:21.144Z,100314.97
2022-08-14T01:37:56.179Z,100322.28
2022-08-14T01:40:37.071Z,100330.84
2022-08-14T01:43:18.446Z,100326.19
2022-08-14T01:46:06.056Z,100331.91
2022-08-14T01:49:02.431Z,100328.13
2022-08-14T01:51:57.063Z,100329.97
2022-08-14T01:54:33.792Z,100338.28
2022-08-14T01:57:10.783Z,100342.09
2022-08-14T01:59:41.102Z,100344.28
2022-08-14T02:02:19.621Z,100339.97
2022-08-14T02:05:13.860Z,100345.09
2022-08-14T02:07:53.688Z,100351.09
2022-08-14T02:10:36.558Z,100344.06
2022-08-14T02:13:19.640Z,100346.75
2022-08-14T02:15:48.531Z,100343.56
2022-08-14T02:18:18.147Z,100337.88
2022-08-14T02:20:48.425Z,100340.34
2022-08-14T02:23:23.761Z,100332.78
2022-08-14T02:26:24.063Z,100329.03
2022-08-14T02:29:00.398Z,100327.94
2022-08-14T02:31:42.337Z,100334.66
2022-08-14T02:34:21.909Z,100329.75
2022-08-14T02:37:20.661Z,100315.66
2022-08-14T02:39:50.986Z,100317.25
2022-08-14T02:42:23.519Z,100309.13
2022-08-14T02:45:43.978Z,100311.03
2022-08-14T02:49:03.722Z,100308.75
2022-08-14T02:51:12.242Z,100311.72
2022-08-14T02:53:42.799Z,100305.44
2022-08-14T02:56:29.503Z,100303.56
2022-08-14T02:59:05.416Z,100309.16
2022-08-14T03:01:50.108Z,100310.47
2022-08-14T03:04:20.875Z,100306.06
2022-08-14T03:06:57.941Z,100308.69
2022-08-14T03:10:26.628Z,100302.66
2022-08-14T03:12:32.119Z,100295.91
2022-08-14T03:15:06.491Z,100295.59
2022-08-14T03:17:41.287Z,100296.69
2022-08-14T03:20:25.265Z,100289.97
2022-08-14T03:22:53.861Z,100292.72
2022-08-14T03:25:22.694Z,100279.41
2022-08-14T03:27:59.153Z,100290.47
2022-08-14T03:30:39.856Z,100281.47
2022-08-14T03:33:11.707Z,100281.22
2022-08-14T03:35:59.996Z,100276.31
2022-08-14T03:39:13.884Z,100274.09
2022-08-14T03:41:44.541Z,100284.41
2022-08-14T03:45:25.640Z,100281.72
2022-08-14T03:47:00.585Z,100279.09
2022-08-14T03:49:34.005Z,100290.97
2022-08-14T03:52:17.723Z,100284.50
2022-08-14T03:54:54.820Z,100270.75
2022-08-14T03:57:23.824Z,100276.38
2022-08-14T03:59:51.855Z,100281.06
2022-08-14T04:02:46.889Z,100267.19
2022-08-14T04:05:16.767Z,100272.44
2022-08-14T04:07:49.799Z,100275.75
2022-08-14T04:10:33.151Z,100282.84
2022-08-14T04:13:04.059Z,100292.72
2022-08-14T04:15:52.790Z,100292.84
2022-08-14T04:18:22.026Z,100285.88
2022-08-14T04:20:51.893Z,100297.31
2022-08-14T04:23:29.646Z,100287.34
2022-08-14T04:26:27.127Z,100288.44
2022-08-14T04:29:07.882Z,100295.22
2022-08-14T04:33:02.520Z,100294.47
2022-08-14T04:34:35.361Z,100297.56
2022-08-14T04:37:25.270Z,100305.97
2022-08-14T04:40:15.104Z,100304.94
2022-08-14T04:43:03.299Z,100303.91
2022-08-14T04:45:41.032Z,100315.03
2022-08-14T04:48:39.460Z,100306.69
2022-08-14T04:51:08.628Z,100302.16
2022-08-14T04:53:42.782Z,100310.31
2022-08-14T04:56:30.546Z,100311.72
2022-08-14T04:59:09.760Z,100309.34
2022-08-14T05:01:48.666Z,100306.72
2022-08-14T05:04:22.007Z,100295.38
2022-08-14T05:06:55.000Z,100298.03
2022-08-14T05:09:24.695Z,100297.22
2022-08-14T05:13:01.052Z,100305.34
2022-08-14T05:14:55.164Z,100306.72
2022-08-14T05:17:28.814Z,100305.97
2022-08-14T05:21:57.554Z,100302.63
2022-08-14T05:23:32.488Z,100301.09
2022-08-14T05:26:13.540Z,100303.09
2022-08-14T05:28:45.050Z,100297.78
2022-08-14T05:31:20.506Z,100300.81
2022-08-14T05:33:54.744Z,100303.88
2022-08-14T05:36:50.765Z,100300.91
2022-08-14T05:39:31.888Z,100292.47
2022-08-14T05:42:00.597Z,100309.28
2022-08-14T05:44:30.767Z,100296.78
2022-08-14T05:46:59.481Z,100298.91
2022-08-14T05:49:33.232Z,100294.78
2022-08-14T05:52:02.801Z,100303.94
2022-08-14T05:54:35.339Z,100298.75
2022-08-14T05:57:05.093Z,100291.16
2022-08-14T05:59:39.057Z,100282.25
2022-08-14T06:02:10.522Z,100288.25
2022-08-14T06:04:40.360Z,100292.38
2022-08-14T06:07:09.556Z,100289.41
2022-08-14T06:09:40.666Z,100279.94
2022-08-14T06:12:09.621Z,100288.34
2022-08-14T06:14:38.736Z,100287.88
2022-08-14T06:17:07.390Z,100286.25
2022-08-14T06:19:36.748Z,100286.03
2022-08-14T06:22:06.723Z,100279.28
2022-08-14T06:24:44.082Z,100276.34
2022-08-14T06:30:47.103Z,100283.41
2022-08-14T06:33:17.988Z,100273.59
2022-08-14T06:35:49.045Z,100285.81
2022-08-14T06:38:23.299Z,100290.94
2022-08-14T06:40:53.334Z,100286.84
2022-08-14T06:43:28.389Z,100291.22
2022-08-14T06:46:01.755Z,100283.59
2022-08-14T06:48:33.145Z,100290.41
2022-08-14T07:00:53.459Z,100293.78
2022-08-14T07:03:40.860Z,100292.97
2022-08-14T07:06:21.502Z,100281.53
2022-08-14T07:09:02.309Z,100279.63
2022-08-14T07:11:30.045Z,100282.88
2022-08-14T07:13:58.748Z,100282.06
2022-08-14T07:16:27.383Z,100286.94
2022-08-14T07:18:55.367Z,100289.66
2022-08-14T07:21:24.153Z,100302.09
2022-08-14T07:23:52.302Z,100296.56
2022-08-14T07:26:20.463Z,100292.75
2022-08-14T07:28:48.293Z,100295.38
2022-08-14T07:31:16.424Z,100294.81
2022-08-14T07:33:50.805Z,100290.69
2022-08-14T07:36:27.464Z,100287.13
2022-08-14T07:39:13.311Z,100288.47
2022-08-14T07:41:44.608Z,100289.28
2022-08-14T07:44:29.772Z,100285.06
2022-08-14T07:47:01.795Z,100287.50
2022-08-14T07:49:34.326Z,100277.66
2022-08-14T07:52:03.298Z,100288.03
2022-08-14T07:54:32.831Z,100274.59
2022-08-14T07:57:11.916Z,100277.28
2022-08-14T07:59:44.722Z,100274.78
2022-08-14T08:02:19.262Z,100277.88
2022-08-14T08:05:25.159Z,100271.66
2022-08-14T08:07:55.864Z,100275.13
2022-08-14T08:10:46.292Z,100270.50
2022-08-14T08:13:24.690Z,100276.59
2022-08-14T08:19:12.798Z,100283.53
2022-08-14T08:21:45.080Z,100275.28
2022-08-14T08:24:14.975Z,100274.63
2022-08-14T08:26:52.339Z,100280.97
2022-08-14T08:29:28.642Z,100275.28
2022-08-14T08:32:05.851Z,100271.47
2022-08-14T08:37:40.376Z,100279.66
2022-08-14T08:40:12.073Z,100278.56
2022-08-14T08:42:53.090Z,100275.09
2022-08-14T08:45:22.567Z,100273.78
2022-08-14T08:47:51.637Z,100281.88
2022-08-14T08:50:31.911Z,100277.75
2022-08-14T08:53:04.012Z,100278.81
2022-08-14T08:55:38.574Z,100270.63
2022-08-14T08:58:16.682Z,100273.84
2022-08-14T09:00:54.058Z,100268.00
2022-08-14T09:03:27.394Z,100270.34
2022-08-14T09:05:58.809Z,100279.25
2022-08-14T09:08:32.768Z,100273.34
2022-08-14T09:11:19.266Z,100263.22
2022-08-14T09:13:53.761Z,100269.28
2022-08-14T09:16:26.002Z,100265.44
2022-08-14T09:18:54.947Z,100269.78
2022-08-14T09:21:24.958Z,100263.03
2022-08-14T09:24:26.419Z,100266.56
2022-08-14T09:26:50.403Z,100264.66
2022-08-14T09:29:23.552Z,100259.56
2022-08-14T09:31:57.885Z,100252.06
2022-08-14T09:35:03.870Z,100254.28
2022-08-14T09:37:55.231Z,100253.88
2022-08-14T09:40:44.267Z,100256.53
2022-08-14T09:43:53.241Z,100246.13
2022-08-14T09:46:25.674Z,100251.00
2022-08-14T09:49:05.262Z,100258.78
2022-08-14T09:51:45.076Z,100257.25
2022-08-14T09:54:23.712Z,100244.47
2022-08-14T09:56:57.091Z,100239.84
2022-08-14T09:59:32.139Z,100246.31
2022-08-14T10:02:01.822Z,100245.41
2022-08-14T10:04:33.961Z,100238.06
2022-08-14T10:07:08.162Z,100239.47
2022-08-14T10:09:57.662Z,100236.22
2022-08-14T10:12:44.780Z,100227.88
2022-08-14T10:15:32.888Z,100237.44
2022-08-14T10:18:22.056Z,100224.19
2022-08-14T10:21:01.047Z,100229.56
2022-08-14T10:23:43.276Z,100227.03
2022-08-14T10:26:23.029Z,100218.81
2022-08-14T10:29:19.855Z,100230.41
2022-08-14T10:31:59.466Z,100222.63
2022-08-14T10:34:40.843Z,100220.69
2022-08-14T10:37:14.481Z,100209.94
2022-08-14T10:40:01.560Z,100222.22
2022-08-14T10:42:41.153Z,100215.75
2022-08-14T10:45:24.399Z,100209.56
2022-08-14T10:48:07.701Z,100203.56
2022-08-14T10:50:46.550Z,100214.34
2022-08-14T10:53:14.663Z,100210.69
2022-08-14T10:55:45.132Z,100207.47
2022-08-14T10:58:14.180Z,100207.47
2022-08-14T11:00:57.136Z,100207.16
2022-08-14T11:03:35.910Z,100200.16
2022-08-14T11:06:24.708Z,100201.06
2022-08-14T11:08:54.315Z,100199.06
2022-08-14T11:11:25.443Z,100196.09
2022-08-14T11:14:06.841Z,100192.16
2022-08-14T11:16:53.381Z,100194.59
2022-08-14T11:19:24.295Z,100195.53
2022-08-14T11:21:56.062Z,100186.16
2022-08-14T11:24:53.923Z,100184.03
2022-08-14T11:27:20.229Z,100183.84
2022-08-14T11:29:52.718Z,100184.34
2022-08-14T11:32:31.275Z,100177.97
2022-08-14T11:35:03.471Z,100177.47
2022-08-14T11:37:40.533Z,100178.38
2022-08-14T11:40:16.440Z,100181.00
2022-08-14T11:43:18.000Z,100180.03
2022-08-14T11:45:50.669Z,100169.22
2022-08-14T11:49:01.758Z,100178.34
2022-08-14T11:51:18.860Z,100179.34
2022-08-14T11:54:01.325Z,100187.88
2022-08-14T11:56:36.965Z,100174.31
2022-08-14T11:59:10.243Z,100177.53
2022-08-14T12:01:41.888Z,100172.19
2022-08-14T12:04:21.605Z,100167.44
2022-08-14T12:07:01.816Z,100170.38
2022-08-14T12:09:29.991Z,100159.22
2022-08-14T12:11:58.550Z,100153.78
2022-08-14T12:14:29.928Z,100152.66
2022-08-14T12:17:11.911Z,100150.72
2022-08-14T12:19:50.984Z,100156.28
2022-08-14T12:22:42.417Z,100155.75
2022-08-14T12:25:29.646Z,100155.97
2022-08-14T12:28:01.608Z,100159.09
2022-08-14T12:30:43.868Z,100158.13
2022-08-14T12:33:31.233Z,100162.38
2022-08-14T12:36:10.550Z,100157.81
2022-08-14T12:38:44.211Z,100159.75
2022-08-14T12:41:20.506Z,100153.84
2022-08-14T12:44:16.067Z,100147.03
2022-08-14T12:46:49.318Z,100135.41
2022-08-14T12:49:19.067Z,100142.91
2022-08-14T12:52:01.465Z,100137.84
2022-08-14T12:54:32.378Z,100131.69
2022-08-14T12:57:14.623Z,100138.38
2022-08-14T12:59:49.294Z,100131.50
2022-08-14T13:02:25.392Z,100125.81
2022-08-14T13:04:56.843Z,100118.06
2022-08-14T13:07:32.685Z,100115.09
2022-08-14T13:10:45.863Z,100117.97
2022-08-14T13:16:38.169Z,100094.03
2022-08-14T13:19:16.200Z,100091.00
2022-08-14T13:21:58.955Z,100087.63
2022-08-14T13:24:40.894Z,100082.97
2022-08-14T13:27:10.826Z,100079.00
2022-08-14T13:29:47.153Z,100082.34
2022-08-14T13:32:16.211Z,100083.69
2022-08-14T13:34:49.952Z,100071.03
2022-08-14T13:37:21.303Z,100063.97
2022-08-14T13:39:56.565Z,100077.72
2022-08-14T13:42:30.142Z,100077.81
2022-08-14T13:45:01.658Z,100082.88
2022-08-14T13:47:33.353Z,100078.47
2022-08-14T13:50:26.449Z,100079.09
2022-08-14T13:52:58.469Z,100075.34
2022-08-14T13:55:29.020Z,100073.31
2022-08-14T13:58:03.675Z,100077.28
2022-08-14T14:00:51.728Z,100072.84
2022-08-14T14:03:24.116Z,100068.91
2022-08-14T14:05:55.282Z,100068.50
2022-08-14T14:08:45.775Z,100054.00
2022-08-14T14:11:15.805Z,100051.78
2022-08-14T14:13:46.385Z,100053.09
2022-08-14T14:16:26.569Z,100047.97
2022-08-14T14:19:09.886Z,100041.00
2022-08-14T14:21:40.537Z,100047.38
2022-08-14T14:24:15.116Z,100044.06
2022-08-14T14:26:50.213Z,100048.44
2022-08-14T14:29:25.947Z,100050.84
2022-08-14T14:31:55.108Z,100051.63
2022-08-14T14:34:36.698Z,100040.09
2022-08-14T14:37:06.623Z,100037.91
2022-08-14T14:39:38.126Z,100036.78
2022-08-14T14:42:32.496Z,100040.59
2022-08-14T14:45:15.537Z,100050.38
2022-08-14T14:47:46.801Z,100046.25
2022-08-14T14:50:17.146Z,100047.50
2022-08-14T14:52:45.399Z,100042.78
2022-08-14T14:55:16.885Z,100044.00
2022-08-14T14:57:52.159Z,100039.59
2022-08-14T15:00:23.483Z,100046.94
2022-08-14T15:02:57.798Z,100050.28
2022-08-14T15:05:28.235Z,100047.84
2022-08-14T15:07:58.059Z,100054.94
2022-08-14T15:10:34.161Z,100051.59
2022-08-14T15:13:07.191Z,100051.78
2022-08-14T15:15:37.858Z,100052.06
2022-08-14T15:18:36.149Z,100054.81
2022-08-14T15:20:59.980Z,100061.03
2022-08-14T15:23:43.827Z,100064.41
2022-08-14T15:26:23.466Z,100055.69
2022-08-14T15:29:06.151Z,100047.16
2022-08-14T15:31:36.505Z,100050.47
2022-08-14T15:34:40.998Z,100050.03
2022-08-14T15:37:00.155Z,100056.53
2022-08-14T15:39:29.397Z,100061.38
2022-08-14T15:42:03.581Z,100065.41
2022-08-14T15:44:46.601Z,100067.31
2022-08-14T15:47:29.335Z,100065.69
2022-08-14T15:50:03.158Z,100064.97
2022-08-14T15:52:45.203Z,100061.09
2022-08-14T15:55:15.466Z,100059.94
2022-08-14T15:58:01.382Z,100068.50
2022-08-14T16:00:54.076Z,100069.06
2022-08-14T16:03:24.889Z,100071.63
2022-08-14T16:05:53.158Z,100062.91
2022-08-14T16:08:26.608Z,100065.09
2022-08-14T16:11:05.757Z,100056.19
2022-08-14T16:13:42.899Z,100054.81
2022-08-14T16:16:49.067Z,100056.25
2022-08-14T16:19:10.297Z,100057.47
2022-08-14T16:21:40.777Z,100052.50
2022-08-14T16:24:32.633Z,100060.72
2022-08-14T16:27:05.178Z,100062.75
2022-08-14T16:29:35.030Z,100058.03
2022-08-14T16:32:27.018Z,100056.94
2022-08-14T16:34:54.883Z,100050.56
2022-08-14T16:37:30.457Z,100046.81
2022-08-14T16:40:00.821Z,100051.06
2022-08-14T16:42:39.467Z,100054.53
2022-08-14T16:45:27.227Z,100037.22
2022-08-14T16:47:55.975Z,100035.44
2022-08-14T16:50:43.377Z,100033.19
2022-08-14T16:53:17.807Z,100031.97
2022-08-14T16:55:53.592Z,100024.78
2022-08-14T16:58:27.764Z,100020.53
2022-08-14T17:01:24.378Z,100023.34
2022-08-14T17:04:24.465Z,100022.22
2022-08-14T17:06:58.052Z,100018.34
2022-08-14T17:09:28.713Z,100016.63
2022-08-14T17:12:09.789Z,100019.22
2022-08-14T17:15:16.131Z,100028.38
2022-08-14T17:17:58.359Z,100022.78
2022-08-14T17:20:53.729Z,100029.44
2022-08-14T17:23:16.531Z,100045.06
2022-08-14T17:25:49.287Z,100048.19
2022-08-14T17:28:50.363Z,100049.38
2022-08-14T17:31:09.378Z,100050.31
2022-08-14T17:36:28.198Z,100041.97
2022-08-14T17:42:13.417Z,100036.94
2022-08-14T17:47:59.334Z,100041.78
2022-08-14T17:50:58.575Z,100050.13
2022-08-14T18:06:06.494Z,100051.28
2022-08-14T18:08:34.004Z,100057.63
2022-08-14T18:21:41.218Z,100111.06
2022-08-14T18:26:37.230Z,100102.56
2022-08-14T18:29:15.080Z,100102.34
2022-08-14T18:31:44.024Z,100107.78
2022-08-14T18:34:32.213Z,100107.25
2022-08-14T18:37:16.787Z,100087.00
2022-08-14T18:40:00.994Z,100085.88
2022-08-14T18:42:34.776Z,100052.06
2022-08-14T18:45:12.642Z,100049.38
2022-08-14T18:50:33.918Z,100055.69
2022-08-14T18:53:10.680Z,100054.31
2022-08-14T18:55:53.250Z,100057.56
2022-08-14T18:58:31.019Z,100058.91
2022-08-14T19:01:01.118Z,100057.53
2022-08-14T19:03:36.750Z,100051.59
2022-08-14T19:06:07.180Z,100048.31
2022-08-14T19:08:47.811Z,100047.53
2022-08-14T19:11:37.709Z,100032.34
2022-08-14T19:14:07.277Z,100039.94
2022-08-14T19:16:43.033Z,100030.72
2022-08-14T19:19:17.154Z,100033.94
2022-08-14T19:21:56.319Z,100028.25
2022-08-14T19:24:43.902Z,100029.06
2022-08-14T19:27:25.143Z,100022.25
2022-08-14T19:30:20.445Z,100020.91
2022-08-14T19:32:55.732Z,100019.84
2022-08-14T19:35:49.888Z,100022.28
2022-08-14T19:38:48.073Z,100019.03
2022-08-14T19:41:29.179Z,100016.03
2022-08-14T19:44:19.225Z,100012.81
2022-08-14T19:47:01.323Z,100025.78
2022-08-14T19:50:24.766Z,100026.63
2022-08-14T19:52:39.659Z,100022.28
2022-08-14T19:55:19.041Z,100022.00
2022-08-14T19:57:58.827Z,100022.00
2022-08-14T20:00:30.024Z,100024.72
2022-08-14T20:03:11.686Z,100013.88
2022-08-14T20:05:45.769Z,100016.88
2022-08-14T20:11:00.094Z,100010.06
2022-08-14T20:11:21.150Z,100003.56
2022-08-14T20:14:23.706Z,100002.47
2022-08-14T20:17:06.205Z,100002.75
2022-08-14T20:19:37.564Z,99994.91
2022-08-14T20:22:36.312Z,99992.19
2022-08-14T20:24:55.096Z,99996.53
2022-08-14T20:27:41.062Z,99995.69
2022-08-14T20:30:33.597Z,99993.25
2022-08-14T20:33:10.624Z,99985.38
2022-08-14T20:35:39.466Z,99983.94
2022-08-14T20:38:30.648Z,99986.38
2022-08-14T20:41:06.831Z,99993.38
2022-08-14T20:43:59.791Z,99997.41
2022-08-14T20:46:38.744Z,99994.97
2022-08-14T20:49:12.544Z,99991.44
2022-08-14T20:51:54.580Z,99997.97
2022-08-14T20:54:33.901Z,99995.56
2022-08-14T20:57:17.953Z,99998.53
2022-08-14T20:59:57.208Z,100001.53
2022-08-14T21:02:49.851Z,100001.81
2022-08-14T21:05:33.538Z,100000.16
2022-08-14T21:08:08.376Z,100004.19
2022-08-14T21:10:53.208Z,100001.78
2022-08-14T21:14:09.074Z,100008.81
2022-08-14T21:16:33.786Z,100009.09
2022-08-14T21:19:02.281Z,100012.84
2022-08-14T21:21:40.676Z,100014.22
2022-08-14T21:24:40.077Z,100025.88
2022-08-14T21:27:12.650Z,100038.31
2022-08-14T21:29:53.969Z,100045.88
2022-08-14T21:32:47.038Z,100045.34
2022-08-14T21:35:22.809Z,100038.88
2022-08-14T21:37:52.675Z,100030.19
2022-08-14T21:40:42.286Z,100026.13
2022-08-14T21:43:17.319Z,100031.00
2022-08-14T21:45:53.635Z,100023.94
2022-08-14T21:48:32.184Z,100016.31
2022-08-14T21:51:53.896Z,100014.13
2022-08-14T21:53:58.669Z,100016.84
2022-08-14T21:56:39.048Z,100001.66
2022-08-14T21:59:36.691Z,100007.06
2022-08-14T22:02:33.480Z,100000.28
2022-08-14T22:05:03.526Z,99995.13
2022-08-14T22:07:32.935Z,99996.22
2022-08-14T22:10:02.457Z,99992.94
2022-08-14T22:12:58.506Z,99989.94
2022-08-14T22:15:22.726Z,99986.97
2022-08-14T22:17:54.414Z,99992.94
2022-08-14T22:20:28.629Z,99988.06
2022-08-14T22:22:58.843Z,99991.31
2022-08-14T22:25:33.317Z,99981.59
2022-08-14T22:28:11.192Z,99969.41
2022-08-14T22:30:41.591Z,99971.28
2022-08-14T22:33:13.505Z,99973.19
2022-08-14T22:35:44.181Z,99968.34
2022-08-14T22:38:37.422Z,99979.69
2022-08-14T22:41:25.839Z,99976.97
2022-08-14T22:43:57.233Z,99979.13
2022-08-14T22:50:29.071Z,99984.78
2022-08-14T23:11:30.827Z,99996.44
2022-08-14T23:14:00.726Z,99989.69
2022-08-14T23:16:29.219Z,99991.59
2022-08-14T23:18:57.179Z,99991.03
2022-08-14T23:30:51.890Z,99996.72
2022-08-14T23:33:24.735Z,99998.06
2022-08-14T23:35:59.233Z,99996.72
2022-08-14T23:38:30.737Z,99992.66
2022-08-14T23:44:10.716Z,99995.56
2022-08-14T23:46:39.599Z,99980.28
